sensor_id;sensor_type;location;lat;lon;timestamp;P1;durP1;ratioP1;P2;durP2;ratioP2
76259;SDS011;65076;52.362;6.588;2023-05-21T00:02:19;3.40;;;2.90;;
76259;SDS011;65076;52.362;6.588;2023-05-21T00:04:47;4.35;;;2.92;;
76259;SDS011;65076;52.362;6.588;2023-05-21T00:07:16;3.88;;;3.33;;
76259;SDS011;65076;52.362;6.588;2023-05-21T00:09:45;3.95;;;2.88;;
76259;SDS011;65076;52.362;6.588;2023-05-21T00:12:13;5.50;;;2.90;;
76259;SDS011;65076;52.362;6.588;2023-05-21T00:14:43;4.95;;;3.00;;
76259;SDS011;65076;52.362;6.588;2023-05-21T00:17:11;3.55;;;2.80;;
76259;SDS011;65076;52.362;6.588;2023-05-21T00:19:39;4.55;;;2.88;;
76259;SDS011;65076;52.362;6.588;2023-05-21T00:22:07;3.78;;;2.83;;
76259;SDS011;65076;52.362;6.588;2023-05-21T00:24:35;4.15;;;3.55;;
76259;SDS011;65076;52.362;6.588;2023-05-21T00:27:02;3.63;;;2.58;;
76259;SDS011;65076;52.362;6.588;2023-05-21T00:29:31;3.08;;;2.53;;
76259;SDS011;65076;52.362;6.588;2023-05-21T00:32:00;4.35;;;2.95;;
76259;SDS011;65076;52.362;6.588;2023-05-21T00:34:28;3.15;;;2.85;;
76259;SDS011;65076;52.362;6.588;2023-05-21T00:36:56;5.28;;;2.83;;
76259;SDS011;65076;52.362;6.588;2023-05-21T00:39:24;4.43;;;2.88;;
76259;SDS011;65076;52.362;6.588;2023-05-21T00:41:52;3.80;;;2.78;;
76259;SDS011;65076;52.362;6.588;2023-05-21T00:44:22;6.18;;;3.20;;
76259;SDS011;65076;52.362;6.588;2023-05-21T00:46:52;4.05;;;2.90;;
76259;SDS011;65076;52.362;6.588;2023-05-21T00:49:21;4.38;;;2.85;;
76259;SDS011;65076;52.362;6.588;2023-05-21T00:51:51;3.38;;;2.80;;
76259;SDS011;65076;52.362;6.588;2023-05-21T00:54:20;3.63;;;3.20;;
76259;SDS011;65076;52.362;6.588;2023-05-21T00:56:49;3.40;;;2.63;;
76259;SDS011;65076;52.362;6.588;2023-05-21T00:59:18;3.80;;;2.88;;
76259;SDS011;65076;52.362;6.588;2023-05-21T01:01:46;5.40;;;2.80;;
76259;SDS011;65076;52.362;6.588;2023-05-21T01:04:22;4.40;;;2.67;;
76259;SDS011;65076;52.362;6.588;2023-05-21T01:06:50;4.75;;;2.65;;
76259;SDS011;65076;52.362;6.588;2023-05-21T01:09:21;8.10;;;3.70;;
76259;SDS011;65076;52.362;6.588;2023-05-21T01:11:49;3.88;;;2.70;;
76259;SDS011;65076;52.362;6.588;2023-05-21T01:14:18;6.45;;;3.13;;
76259;SDS011;65076;52.362;6.588;2023-05-21T01:16:49;4.97;;;2.50;;
76259;SDS011;65076;52.362;6.588;2023-05-21T01:19:20;5.13;;;2.95;;
76259;SDS011;65076;52.362;6.588;2023-05-21T01:21:52;6.75;;;3.17;;
76259;SDS011;65076;52.362;6.588;2023-05-21T01:24:32;4.72;;;3.00;;
76259;SDS011;65076;52.362;6.588;2023-05-21T01:27:03;3.53;;;2.70;;
76259;SDS011;65076;52.362;6.588;2023-05-21T01:29:33;4.35;;;2.67;;
76259;SDS011;65076;52.362;6.588;2023-05-21T01:32:02;6.07;;;3.05;;
76259;SDS011;65076;52.362;6.588;2023-05-21T01:34:43;4.47;;;2.80;;
76259;SDS011;65076;52.362;6.588;2023-05-21T01:37:23;5.85;;;3.22;;
76259;SDS011;65076;52.362;6.588;2023-05-21T01:40:02;3.90;;;2.60;;
76259;SDS011;65076;52.362;6.588;2023-05-21T01:42:39;4.65;;;3.33;;
76259;SDS011;65076;52.362;6.588;2023-05-21T01:45:11;5.43;;;3.13;;
76259;SDS011;65076;52.362;6.588;2023-05-21T01:47:42;3.33;;;3.03;;
76259;SDS011;65076;52.362;6.588;2023-05-21T01:50:15;5.10;;;3.35;;
76259;SDS011;65076;52.362;6.588;2023-05-21T01:52:48;3.45;;;2.70;;
76259;SDS011;65076;52.362;6.588;2023-05-21T01:55:19;5.28;;;3.15;;
76259;SDS011;65076;52.362;6.588;2023-05-21T01:57:50;3.97;;;2.92;;
76259;SDS011;65076;52.362;6.588;2023-05-21T02:00:19;5.95;;;3.40;;
76259;SDS011;65076;52.362;6.588;2023-05-21T02:05:17;3.78;;;2.85;;
76259;SDS011;65076;52.362;6.588;2023-05-21T02:07:45;5.78;;;2.78;;
76259;SDS011;65076;52.362;6.588;2023-05-21T02:10:15;4.70;;;3.25;;
76259;SDS011;65076;52.362;6.588;2023-05-21T02:12:44;3.60;;;2.78;;
76259;SDS011;65076;52.362;6.588;2023-05-21T02:15:12;3.92;;;3.13;;
76259;SDS011;65076;52.362;6.588;2023-05-21T02:17:43;3.92;;;2.88;;
76259;SDS011;65076;52.362;6.588;2023-05-21T02:20:12;3.72;;;2.92;;
76259;SDS011;65076;52.362;6.588;2023-05-21T02:22:41;4.20;;;3.58;;
76259;SDS011;65076;52.362;6.588;2023-05-21T02:25:11;4.93;;;2.90;;
76259;SDS011;65076;52.362;6.588;2023-05-21T02:27:41;4.47;;;3.20;;
76259;SDS011;65076;52.362;6.588;2023-05-21T02:30:12;3.53;;;3.13;;
76259;SDS011;65076;52.362;6.588;2023-05-21T02:32:42;4.18;;;3.38;;
76259;SDS011;65076;52.362;6.588;2023-05-21T02:35:11;4.10;;;3.00;;
76259;SDS011;65076;52.362;6.588;2023-05-21T02:37:39;4.38;;;3.35;;
76259;SDS011;65076;52.362;6.588;2023-05-21T02:42:38;4.88;;;3.42;;
76259;SDS011;65076;52.362;6.588;2023-05-21T02:45:09;4.22;;;3.60;;
76259;SDS011;65076;52.362;6.588;2023-05-21T02:47:38;4.10;;;3.15;;
76259;SDS011;65076;52.362;6.588;2023-05-21T02:50:07;5.72;;;3.42;;
76259;SDS011;65076;52.362;6.588;2023-05-21T02:52:35;5.07;;;3.50;;
76259;SDS011;65076;52.362;6.588;2023-05-21T02:55:03;4.55;;;3.00;;
76259;SDS011;65076;52.362;6.588;2023-05-21T02:57:32;6.28;;;4.00;;
76259;SDS011;65076;52.362;6.588;2023-05-21T03:00:00;5.90;;;4.10;;
76259;SDS011;65076;52.362;6.588;2023-05-21T03:02:32;5.43;;;3.50;;
76259;SDS011;65076;52.362;6.588;2023-05-21T03:05:00;4.43;;;3.45;;
76259;SDS011;65076;52.362;6.588;2023-05-21T03:07:28;3.90;;;3.08;;
76259;SDS011;65076;52.362;6.588;2023-05-21T03:09:56;6.70;;;3.95;;
76259;SDS011;65076;52.362;6.588;2023-05-21T03:12:24;4.28;;;3.38;;
76259;SDS011;65076;52.362;6.588;2023-05-21T03:14:52;4.82;;;3.70;;
76259;SDS011;65076;52.362;6.588;2023-05-21T03:17:21;4.00;;;3.60;;
76259;SDS011;65076;52.362;6.588;2023-05-21T03:19:51;4.03;;;3.58;;
76259;SDS011;65076;52.362;6.588;2023-05-21T03:22:20;5.13;;;3.72;;
76259;SDS011;65076;52.362;6.588;2023-05-21T03:24:47;4.78;;;3.65;;
76259;SDS011;65076;52.362;6.588;2023-05-21T03:27:15;6.18;;;4.32;;
76259;SDS011;65076;52.362;6.588;2023-05-21T03:29:44;4.97;;;3.63;;
76259;SDS011;65076;52.362;6.588;2023-05-21T03:32:12;4.70;;;3.72;;
76259;SDS011;65076;52.362;6.588;2023-05-21T03:34:41;4.32;;;3.47;;
76259;SDS011;65076;52.362;6.588;2023-05-21T03:37:11;5.75;;;3.92;;
76259;SDS011;65076;52.362;6.588;2023-05-21T03:39:39;4.80;;;4.28;;
76259;SDS011;65076;52.362;6.588;2023-05-21T03:42:07;7.05;;;4.68;;
76259;SDS011;65076;52.362;6.588;2023-05-21T03:44:34;6.00;;;3.70;;
76259;SDS011;65076;52.362;6.588;2023-05-21T03:47:02;6.40;;;3.92;;
76259;SDS011;65076;52.362;6.588;2023-05-21T03:49:30;7.45;;;4.28;;
76259;SDS011;65076;52.362;6.588;2023-05-21T03:51:58;5.72;;;3.83;;
76259;SDS011;65076;52.362;6.588;2023-05-21T03:54:28;5.03;;;3.90;;
76259;SDS011;65076;52.362;6.588;2023-05-21T03:56:56;6.18;;;4.07;;
76259;SDS011;65076;52.362;6.588;2023-05-21T03:59:25;7.30;;;4.47;;
76259;SDS011;65076;52.362;6.588;2023-05-21T04:01:53;9.90;;;4.25;;
76259;SDS011;65076;52.362;6.588;2023-05-21T04:04:21;5.18;;;3.95;;
76259;SDS011;65076;52.362;6.588;2023-05-21T04:06:49;6.03;;;3.88;;
76259;SDS011;65076;52.362;6.588;2023-05-21T04:09:19;5.05;;;3.67;;
76259;SDS011;65076;52.362;6.588;2023-05-21T04:11:49;5.30;;;4.07;;
76259;SDS011;65076;52.362;6.588;2023-05-21T04:14:17;6.75;;;4.32;;
76259;SDS011;65076;52.362;6.588;2023-05-21T04:16:44;5.63;;;4.03;;
76259;SDS011;65076;52.362;6.588;2023-05-21T04:19:14;4.43;;;3.47;;
76259;SDS011;65076;52.362;6.588;2023-05-21T04:21:42;6.70;;;4.78;;
76259;SDS011;65076;52.362;6.588;2023-05-21T04:24:11;6.43;;;4.35;;
76259;SDS011;65076;52.362;6.588;2023-05-21T04:26:39;6.75;;;4.10;;
76259;SDS011;65076;52.362;6.588;2023-05-21T04:29:09;6.03;;;4.45;;
76259;SDS011;65076;52.362;6.588;2023-05-21T04:31:36;5.35;;;4.07;;
76259;SDS011;65076;52.362;6.588;2023-05-21T04:34:04;5.55;;;4.07;;
76259;SDS011;65076;52.362;6.588;2023-05-21T04:36:32;6.13;;;4.18;;
76259;SDS011;65076;52.362;6.588;2023-05-21T04:39:00;8.20;;;4.05;;
76259;SDS011;65076;52.362;6.588;2023-05-21T04:41:31;5.28;;;4.45;;
76259;SDS011;65076;52.362;6.588;2023-05-21T04:43:59;6.47;;;3.97;;
76259;SDS011;65076;52.362;6.588;2023-05-21T04:46:31;6.18;;;4.82;;
76259;SDS011;65076;52.362;6.588;2023-05-21T04:49:00;9.25;;;4.38;;
76259;SDS011;65076;52.362;6.588;2023-05-21T04:51:29;5.60;;;4.32;;
76259;SDS011;65076;52.362;6.588;2023-05-21T04:53:58;8.77;;;4.70;;
76259;SDS011;65076;52.362;6.588;2023-05-21T04:56:26;6.72;;;4.30;;
76259;SDS011;65076;52.362;6.588;2023-05-21T04:58:54;9.50;;;4.43;;
76259;SDS011;65076;52.362;6.588;2023-05-21T05:01:25;7.30;;;4.10;;
76259;SDS011;65076;52.362;6.588;2023-05-21T05:03:55;6.32;;;4.20;;
76259;SDS011;65076;52.362;6.588;2023-05-21T05:06:24;6.70;;;4.03;;
76259;SDS011;65076;52.362;6.588;2023-05-21T05:08:52;5.95;;;4.40;;
76259;SDS011;65076;52.362;6.588;2023-05-21T05:11:21;5.53;;;4.40;;
76259;SDS011;65076;52.362;6.588;2023-05-21T05:13:50;6.10;;;4.00;;
76259;SDS011;65076;52.362;6.588;2023-05-21T05:16:18;7.00;;;4.32;;
76259;SDS011;65076;52.362;6.588;2023-05-21T05:18:51;9.90;;;4.20;;
76259;SDS011;65076;52.362;6.588;2023-05-21T05:21:21;5.68;;;4.43;;
76259;SDS011;65076;52.362;6.588;2023-05-21T05:23:49;7.18;;;4.28;;
76259;SDS011;65076;52.362;6.588;2023-05-21T05:26:17;8.82;;;5.00;;
76259;SDS011;65076;52.362;6.588;2023-05-21T05:28:46;6.97;;;4.25;;
76259;SDS011;65076;52.362;6.588;2023-05-21T05:31:14;6.40;;;4.05;;
76259;SDS011;65076;52.362;6.588;2023-05-21T05:33:43;6.30;;;3.97;;
76259;SDS011;65076;52.362;6.588;2023-05-21T05:36:11;5.72;;;4.13;;
76259;SDS011;65076;52.362;6.588;2023-05-21T05:38:41;6.88;;;4.00;;
76259;SDS011;65076;52.362;6.588;2023-05-21T05:41:09;5.70;;;4.35;;
76259;SDS011;65076;52.362;6.588;2023-05-21T05:43:37;5.28;;;3.63;;
76259;SDS011;65076;52.362;6.588;2023-05-21T05:46:04;6.70;;;4.00;;
76259;SDS011;65076;52.362;6.588;2023-05-21T05:48:33;7.38;;;4.80;;
76259;SDS011;65076;52.362;6.588;2023-05-21T05:51:00;7.18;;;4.00;;
76259;SDS011;65076;52.362;6.588;2023-05-21T05:53:28;7.32;;;4.00;;
76259;SDS011;65076;52.362;6.588;2023-05-21T05:55:58;6.63;;;4.72;;
76259;SDS011;65076;52.362;6.588;2023-05-21T05:58:27;6.75;;;4.88;;
76259;SDS011;65076;52.362;6.588;2023-05-21T06:00:56;6.82;;;4.05;;
76259;SDS011;65076;52.362;6.588;2023-05-21T06:03:24;5.68;;;3.92;;
76259;SDS011;65076;52.362;6.588;2023-05-21T06:05:53;8.40;;;4.38;;
76259;SDS011;65076;52.362;6.588;2023-05-21T06:08:21;9.15;;;4.07;;
76259;SDS011;65076;52.362;6.588;2023-05-21T06:10:49;6.22;;;4.80;;
76259;SDS011;65076;52.362;6.588;2023-05-21T06:13:21;6.07;;;4.13;;
76259;SDS011;65076;52.362;6.588;2023-05-21T06:15:51;7.88;;;4.40;;
76259;SDS011;65076;52.362;6.588;2023-05-21T06:18:19;6.22;;;4.38;;
76259;SDS011;65076;52.362;6.588;2023-05-21T06:20:49;7.10;;;4.82;;
76259;SDS011;65076;52.362;6.588;2023-05-21T06:23:17;5.82;;;4.28;;
76259;SDS011;65076;52.362;6.588;2023-05-21T06:25:45;6.80;;;3.90;;
76259;SDS011;65076;52.362;6.588;2023-05-21T06:28:13;5.30;;;4.15;;
76259;SDS011;65076;52.362;6.588;2023-05-21T06:30:44;5.72;;;3.72;;
76259;SDS011;65076;52.362;6.588;2023-05-21T06:33:12;6.82;;;4.38;;
76259;SDS011;65076;52.362;6.588;2023-05-21T06:35:40;7.93;;;4.18;;
76259;SDS011;65076;52.362;6.588;2023-05-21T06:38:08;5.63;;;4.03;;
76259;SDS011;65076;52.362;6.588;2023-05-21T06:40:44;7.50;;;4.78;;
76259;SDS011;65076;52.362;6.588;2023-05-21T06:43:13;6.88;;;4.45;;
76259;SDS011;65076;52.362;6.588;2023-05-21T06:45:41;8.27;;;4.15;;
76259;SDS011;65076;52.362;6.588;2023-05-21T06:48:10;5.97;;;4.20;;
76259;SDS011;65076;52.362;6.588;2023-05-21T06:50:41;5.85;;;4.13;;
76259;SDS011;65076;52.362;6.588;2023-05-21T06:53:09;5.60;;;4.15;;
76259;SDS011;65076;52.362;6.588;2023-05-21T06:55:55;8.55;;;5.13;;
76259;SDS011;65076;52.362;6.588;2023-05-21T06:58:22;5.63;;;4.05;;
76259;SDS011;65076;52.362;6.588;2023-05-21T07:00:51;7.53;;;3.90;;
76259;SDS011;65076;52.362;6.588;2023-05-21T07:03:20;6.45;;;4.60;;
76259;SDS011;65076;52.362;6.588;2023-05-21T07:05:48;7.07;;;4.65;;
76259;SDS011;65076;52.362;6.588;2023-05-21T07:08:17;7.28;;;4.13;;
76259;SDS011;65076;52.362;6.588;2023-05-21T07:10:46;7.80;;;3.80;;
76259;SDS011;65076;52.362;6.588;2023-05-21T07:13:15;5.65;;;3.67;;
76259;SDS011;65076;52.362;6.588;2023-05-21T07:15:43;6.28;;;3.92;;
76259;SDS011;65076;52.362;6.588;2023-05-21T07:18:10;7.00;;;3.95;;
76259;SDS011;65076;52.362;6.588;2023-05-21T07:20:40;6.13;;;4.00;;
76259;SDS011;65076;52.362;6.588;2023-05-21T07:23:08;6.57;;;4.18;;
76259;SDS011;65076;52.362;6.588;2023-05-21T07:25:36;10.70;;;4.63;;
76259;SDS011;65076;52.362;6.588;2023-05-21T07:28:04;8.32;;;4.63;;
76259;SDS011;65076;52.362;6.588;2023-05-21T07:30:32;4.57;;;4.13;;
76259;SDS011;65076;52.362;6.588;2023-05-21T07:33:00;6.82;;;4.00;;
76259;SDS011;65076;52.362;6.588;2023-05-21T07:35:28;4.88;;;4.32;;
76259;SDS011;65076;52.362;6.588;2023-05-21T07:37:57;8.32;;;4.55;;
76259;SDS011;65076;52.362;6.588;2023-05-21T07:42:53;6.35;;;4.38;;
76259;SDS011;65076;52.362;6.588;2023-05-21T07:45:21;7.82;;;4.43;;
76259;SDS011;65076;52.362;6.588;2023-05-21T07:47:49;8.48;;;4.50;;
76259;SDS011;65076;52.362;6.588;2023-05-21T07:50:17;5.93;;;4.28;;
76259;SDS011;65076;52.362;6.588;2023-05-21T07:52:47;5.15;;;4.05;;
76259;SDS011;65076;52.362;6.588;2023-05-21T07:55:16;6.80;;;4.43;;
76259;SDS011;65076;52.362;6.588;2023-05-21T07:57:44;6.18;;;4.80;;
76259;SDS011;65076;52.362;6.588;2023-05-21T08:00:13;6.13;;;4.90;;
76259;SDS011;65076;52.362;6.588;2023-05-21T08:02:42;7.95;;;5.15;;
76259;SDS011;65076;52.362;6.588;2023-05-21T08:05:10;6.47;;;4.95;;
76259;SDS011;65076;52.362;6.588;2023-05-21T08:07:41;7.03;;;4.28;;
76259;SDS011;65076;52.362;6.588;2023-05-21T08:10:09;5.82;;;4.22;;
76259;SDS011;65076;52.362;6.588;2023-05-21T08:12:38;5.95;;;4.00;;
76259;SDS011;65076;52.362;6.588;2023-05-21T08:17:35;7.18;;;4.32;;
76259;SDS011;65076;52.362;6.588;2023-05-21T08:20:04;7.70;;;4.60;;
76259;SDS011;65076;52.362;6.588;2023-05-21T08:22:33;5.60;;;4.55;;
76259;SDS011;65076;52.362;6.588;2023-05-21T08:25:01;12.38;;;5.18;;
76259;SDS011;65076;52.362;6.588;2023-05-21T08:27:32;6.10;;;4.15;;
76259;SDS011;65076;52.362;6.588;2023-05-21T08:30:01;6.70;;;4.40;;
76259;SDS011;65076;52.362;6.588;2023-05-21T08:32:32;8.93;;;5.07;;
76259;SDS011;65076;52.362;6.588;2023-05-21T08:35:01;5.78;;;4.70;;
76259;SDS011;65076;52.362;6.588;2023-05-21T08:37:30;7.80;;;4.65;;
76259;SDS011;65076;52.362;6.588;2023-05-21T08:39:58;8.35;;;5.30;;
76259;SDS011;65076;52.362;6.588;2023-05-21T08:42:29;6.57;;;4.88;;
76259;SDS011;65076;52.362;6.588;2023-05-21T08:45:11;6.85;;;4.65;;
76259;SDS011;65076;52.362;6.588;2023-05-21T08:47:40;7.47;;;6.40;;
76259;SDS011;65076;52.362;6.588;2023-05-21T08:50:10;6.53;;;5.18;;
76259;SDS011;65076;52.362;6.588;2023-05-21T08:52:42;6.00;;;5.35;;
76259;SDS011;65076;52.362;6.588;2023-05-21T08:57:44;9.02;;;5.18;;
76259;SDS011;65076;52.362;6.588;2023-05-21T09:00:14;8.82;;;4.93;;
76259;SDS011;65076;52.362;6.588;2023-05-21T09:03:03;7.45;;;5.15;;
76259;SDS011;65076;52.362;6.588;2023-05-21T09:05:33;5.80;;;4.72;;
76259;SDS011;65076;52.362;6.588;2023-05-21T09:08:03;9.73;;;5.63;;
76259;SDS011;65076;52.362;6.588;2023-05-21T09:10:38;6.38;;;5.13;;
76259;SDS011;65076;52.362;6.588;2023-05-21T09:13:14;7.25;;;4.85;;
76259;SDS011;65076;52.362;6.588;2023-05-21T09:15:47;9.27;;;5.63;;
76259;SDS011;65076;52.362;6.588;2023-05-21T09:18:16;7.95;;;5.95;;
76259;SDS011;65076;52.362;6.588;2023-05-21T09:20:44;7.78;;;6.28;;
76259;SDS011;65076;52.362;6.588;2023-05-21T09:23:15;9.85;;;5.72;;
76259;SDS011;65076;52.362;6.588;2023-05-21T09:25:44;7.68;;;5.35;;
76259;SDS011;65076;52.362;6.588;2023-05-21T09:28:14;8.23;;;6.10;;
76259;SDS011;65076;52.362;6.588;2023-05-21T09:30:51;6.65;;;5.00;;
76259;SDS011;65076;52.362;6.588;2023-05-21T09:36:23;8.40;;;6.72;;
76259;SDS011;65076;52.362;6.588;2023-05-21T09:38:51;9.82;;;6.60;;
76259;SDS011;65076;52.362;6.588;2023-05-21T09:41:30;9.98;;;6.43;;
76259;SDS011;65076;52.362;6.588;2023-05-21T09:43:59;7.97;;;6.22;;
76259;SDS011;65076;52.362;6.588;2023-05-21T09:46:37;9.65;;;7.90;;
76259;SDS011;65076;52.362;6.588;2023-05-21T09:49:06;8.15;;;7.30;;
76259;SDS011;65076;52.362;6.588;2023-05-21T09:51:49;9.55;;;6.22;;
76259;SDS011;65076;52.362;6.588;2023-05-21T09:54:17;11.23;;;7.30;;
76259;SDS011;65076;52.362;6.588;2023-05-21T09:56:45;9.52;;;6.82;;
76259;SDS011;65076;52.362;6.588;2023-05-21T09:59:13;10.27;;;7.18;;
76259;SDS011;65076;52.362;6.588;2023-05-21T10:01:42;10.88;;;7.25;;
76259;SDS011;65076;52.362;6.588;2023-05-21T10:04:11;9.15;;;7.32;;
76259;SDS011;65076;52.362;6.588;2023-05-21T10:06:41;9.77;;;7.47;;
76259;SDS011;65076;52.362;6.588;2023-05-21T10:09:10;10.45;;;7.18;;
76259;SDS011;65076;52.362;6.588;2023-05-21T10:11:42;8.95;;;7.93;;
76259;SDS011;65076;52.362;6.588;2023-05-21T10:14:13;11.50;;;8.82;;
76259;SDS011;65076;52.362;6.588;2023-05-21T10:16:47;11.13;;;8.95;;
76259;SDS011;65076;52.362;6.588;2023-05-21T10:19:16;10.35;;;8.88;;
76259;SDS011;65076;52.362;6.588;2023-05-21T10:21:46;11.73;;;9.52;;
76259;SDS011;65076;52.362;6.588;2023-05-21T10:24:18;14.10;;;9.43;;
76259;SDS011;65076;52.362;6.588;2023-05-21T10:26:47;12.35;;;9.95;;
76259;SDS011;65076;52.362;6.588;2023-05-21T10:29:16;12.48;;;9.25;;
76259;SDS011;65076;52.362;6.588;2023-05-21T10:31:48;11.20;;;8.90;;
76259;SDS011;65076;52.362;6.588;2023-05-21T10:34:18;10.93;;;9.07;;
76259;SDS011;65076;52.362;6.588;2023-05-21T10:36:49;10.95;;;9.23;;
76259;SDS011;65076;52.362;6.588;2023-05-21T10:39:22;13.98;;;9.88;;
76259;SDS011;65076;52.362;6.588;2023-05-21T10:41:54;12.50;;;10.60;;
76259;SDS011;65076;52.362;6.588;2023-05-21T10:44:48;9.82;;;8.82;;
76259;SDS011;65076;52.362;6.588;2023-05-21T10:47:49;13.13;;;9.70;;
76259;SDS011;65076;52.362;6.588;2023-05-21T10:50:42;12.95;;;9.30;;
76259;SDS011;65076;52.362;6.588;2023-05-21T10:53:31;12.18;;;9.55;;
76259;SDS011;65076;52.362;6.588;2023-05-21T10:56:23;11.40;;;9.80;;
76259;SDS011;65076;52.362;6.588;2023-05-21T10:59:04;11.15;;;9.60;;
76259;SDS011;65076;52.362;6.588;2023-05-21T11:01:47;14.25;;;9.30;;
76259;SDS011;65076;52.362;6.588;2023-05-21T11:04:22;11.30;;;9.15;;
76259;SDS011;65076;52.362;6.588;2023-05-21T11:06:52;14.43;;;10.93;;
76259;SDS011;65076;52.362;6.588;2023-05-21T11:09:21;11.70;;;9.43;;
76259;SDS011;65076;52.362;6.588;2023-05-21T11:11:49;15.27;;;10.00;;
76259;SDS011;65076;52.362;6.588;2023-05-21T11:14:26;10.70;;;9.10;;
76259;SDS011;65076;52.362;6.588;2023-05-21T11:16:58;12.90;;;10.10;;
76259;SDS011;65076;52.362;6.588;2023-05-21T11:19:34;10.18;;;9.15;;
76259;SDS011;65076;52.362;6.588;2023-05-21T11:24:39;15.25;;;9.50;;
76259;SDS011;65076;52.362;6.588;2023-05-21T11:27:07;14.05;;;10.80;;
76259;SDS011;65076;52.362;6.588;2023-05-21T11:29:37;14.77;;;10.18;;
76259;SDS011;65076;52.362;6.588;2023-05-21T11:32:11;14.15;;;9.57;;
76259;SDS011;65076;52.362;6.588;2023-05-21T11:34:48;13.88;;;9.07;;
76259;SDS011;65076;52.362;6.588;2023-05-21T11:37:26;14.73;;;9.55;;
76259;SDS011;65076;52.362;6.588;2023-05-21T11:42:55;11.18;;;9.48;;
76259;SDS011;65076;52.362;6.588;2023-05-21T11:45:27;10.82;;;9.73;;
76259;SDS011;65076;52.362;6.588;2023-05-21T11:47:57;12.43;;;10.05;;
76259;SDS011;65076;52.362;6.588;2023-05-21T11:50:27;11.95;;;9.05;;
76259;SDS011;65076;52.362;6.588;2023-05-21T11:52:59;10.48;;;9.20;;
76259;SDS011;65076;52.362;6.588;2023-05-21T11:55:27;13.52;;;10.35;;
76259;SDS011;65076;52.362;6.588;2023-05-21T11:57:55;12.40;;;10.25;;
76259;SDS011;65076;52.362;6.588;2023-05-21T12:00:25;11.35;;;9.38;;
76259;SDS011;65076;52.362;6.588;2023-05-21T12:02:53;12.45;;;10.15;;
76259;SDS011;65076;52.362;6.588;2023-05-21T12:05:23;12.00;;;9.75;;
76259;SDS011;65076;52.362;6.588;2023-05-21T12:07:53;12.07;;;10.38;;
76259;SDS011;65076;52.362;6.588;2023-05-21T12:10:28;13.88;;;9.82;;
76259;SDS011;65076;52.362;6.588;2023-05-21T12:12:56;11.57;;;9.35;;
76259;SDS011;65076;52.362;6.588;2023-05-21T12:15:25;13.40;;;9.77;;
76259;SDS011;65076;52.362;6.588;2023-05-21T12:17:53;12.48;;;10.00;;
76259;SDS011;65076;52.362;6.588;2023-05-21T12:20:24;10.65;;;8.75;;
76259;SDS011;65076;52.362;6.588;2023-05-21T12:22:56;12.77;;;10.32;;
76259;SDS011;65076;52.362;6.588;2023-05-21T12:25:26;12.57;;;9.45;;
76259;SDS011;65076;52.362;6.588;2023-05-21T12:27:55;13.13;;;9.98;;
76259;SDS011;65076;52.362;6.588;2023-05-21T12:30:26;13.15;;;10.20;;
76259;SDS011;65076;52.362;6.588;2023-05-21T12:32:56;13.52;;;9.35;;
76259;SDS011;65076;52.362;6.588;2023-05-21T12:35:28;13.30;;;11.10;;
76259;SDS011;65076;52.362;6.588;2023-05-21T12:38:00;14.55;;;10.15;;
76259;SDS011;65076;52.362;6.588;2023-05-21T12:40:35;12.82;;;10.57;;
76259;SDS011;65076;52.362;6.588;2023-05-21T12:43:05;13.10;;;9.95;;
76259;SDS011;65076;52.362;6.588;2023-05-21T12:45:34;11.40;;;9.38;;
76259;SDS011;65076;52.362;6.588;2023-05-21T12:48:04;11.18;;;9.43;;
76259;SDS011;65076;52.362;6.588;2023-05-21T12:50:33;13.25;;;9.25;;
76259;SDS011;65076;52.362;6.588;2023-05-21T12:53:08;12.27;;;10.48;;
76259;SDS011;65076;52.362;6.588;2023-05-21T12:55:37;11.38;;;9.30;;
76259;SDS011;65076;52.362;6.588;2023-05-21T12:58:06;12.18;;;9.18;;
76259;SDS011;65076;52.362;6.588;2023-05-21T13:00:34;11.20;;;9.25;;
76259;SDS011;65076;52.362;6.588;2023-05-21T13:05:32;12.98;;;8.80;;
76259;SDS011;65076;52.362;6.588;2023-05-21T13:11:49;12.25;;;10.15;;
76259;SDS011;65076;52.362;6.588;2023-05-21T13:14:17;11.25;;;9.05;;
76259;SDS011;65076;52.362;6.588;2023-05-21T13:16:46;12.25;;;10.25;;
76259;SDS011;65076;52.362;6.588;2023-05-21T13:19:14;12.82;;;9.60;;
76259;SDS011;65076;52.362;6.588;2023-05-21T13:21:43;12.50;;;10.25;;
76259;SDS011;65076;52.362;6.588;2023-05-21T13:24:10;13.70;;;10.27;;
76259;SDS011;65076;52.362;6.588;2023-05-21T13:26:38;13.05;;;10.07;;
76259;SDS011;65076;52.362;6.588;2023-05-21T13:29:08;12.88;;;10.05;;
76259;SDS011;65076;52.362;6.588;2023-05-21T13:31:40;11.35;;;9.93;;
76259;SDS011;65076;52.362;6.588;2023-05-21T13:34:09;11.25;;;8.25;;
76259;SDS011;65076;52.362;6.588;2023-05-21T13:36:38;10.85;;;9.05;;
76259;SDS011;65076;52.362;6.588;2023-05-21T13:39:07;12.55;;;9.27;;
76259;SDS011;65076;52.362;6.588;2023-05-21T13:41:35;10.93;;;9.52;;
76259;SDS011;65076;52.362;6.588;2023-05-21T13:44:03;14.70;;;9.75;;
76259;SDS011;65076;52.362;6.588;2023-05-21T13:46:33;11.60;;;9.27;;
76259;SDS011;65076;52.362;6.588;2023-05-21T13:49:04;10.63;;;9.52;;
76259;SDS011;65076;52.362;6.588;2023-05-21T13:51:35;10.95;;;8.98;;
76259;SDS011;65076;52.362;6.588;2023-05-21T13:54:06;13.52;;;9.98;;
76259;SDS011;65076;52.362;6.588;2023-05-21T13:56:34;13.30;;;9.20;;
76259;SDS011;65076;52.362;6.588;2023-05-21T13:59:02;12.90;;;9.98;;
76259;SDS011;65076;52.362;6.588;2023-05-21T14:01:31;14.10;;;9.68;;
76259;SDS011;65076;52.362;6.588;2023-05-21T14:04:01;13.75;;;9.80;;
76259;SDS011;65076;52.362;6.588;2023-05-21T14:06:32;14.75;;;10.20;;
76259;SDS011;65076;52.362;6.588;2023-05-21T14:09:01;11.07;;;9.25;;
76259;SDS011;65076;52.362;6.588;2023-05-21T14:11:31;14.52;;;9.65;;
76259;SDS011;65076;52.362;6.588;2023-05-21T14:14:00;14.45;;;9.63;;
76259;SDS011;65076;52.362;6.588;2023-05-21T14:16:30;10.63;;;8.88;;
76259;SDS011;65076;52.362;6.588;2023-05-21T14:18:58;12.77;;;9.68;;
76259;SDS011;65076;52.362;6.588;2023-05-21T14:21:27;10.68;;;8.50;;
76259;SDS011;65076;52.362;6.588;2023-05-21T14:23:56;12.23;;;9.50;;
76259;SDS011;65076;52.362;6.588;2023-05-21T14:26:24;15.82;;;10.88;;
76259;SDS011;65076;52.362;6.588;2023-05-21T14:28:52;12.23;;;9.23;;
76259;SDS011;65076;52.362;6.588;2023-05-21T14:31:21;11.05;;;9.23;;
76259;SDS011;65076;52.362;6.588;2023-05-21T14:33:50;12.45;;;9.32;;
76259;SDS011;65076;52.362;6.588;2023-05-21T14:36:18;13.93;;;10.23;;
76259;SDS011;65076;52.362;6.588;2023-05-21T14:38:48;12.35;;;9.90;;
76259;SDS011;65076;52.362;6.588;2023-05-21T14:43:45;13.82;;;9.88;;
76259;SDS011;65076;52.362;6.588;2023-05-21T14:46:13;11.55;;;10.13;;
76259;SDS011;65076;52.362;6.588;2023-05-21T14:48:41;10.52;;;9.35;;
76259;SDS011;65076;52.362;6.588;2023-05-21T14:51:11;12.38;;;9.20;;
76259;SDS011;65076;52.362;6.588;2023-05-21T14:53:39;12.80;;;10.32;;
76259;SDS011;65076;52.362;6.588;2023-05-21T14:56:09;12.48;;;9.02;;
76259;SDS011;65076;52.362;6.588;2023-05-21T14:58:37;12.73;;;10.23;;
76259;SDS011;65076;52.362;6.588;2023-05-21T15:01:05;12.02;;;9.98;;
76259;SDS011;65076;52.362;6.588;2023-05-21T15:03:33;13.90;;;9.70;;
76259;SDS011;65076;52.362;6.588;2023-05-21T15:06:01;14.38;;;10.10;;
76259;SDS011;65076;52.362;6.588;2023-05-21T15:08:29;11.77;;;10.07;;
76259;SDS011;65076;52.362;6.588;2023-05-21T15:10:57;12.18;;;10.30;;
76259;SDS011;65076;52.362;6.588;2023-05-21T15:13:26;12.45;;;11.15;;
76259;SDS011;65076;52.362;6.588;2023-05-21T15:15:54;11.73;;;9.80;;
76259;SDS011;65076;52.362;6.588;2023-05-21T15:18:22;14.75;;;10.55;;
76259;SDS011;65076;52.362;6.588;2023-05-21T15:20:50;15.82;;;10.05;;
76259;SDS011;65076;52.362;6.588;2023-05-21T15:23:18;14.65;;;10.45;;
76259;SDS011;65076;52.362;6.588;2023-05-21T15:25:47;12.35;;;9.25;;
76259;SDS011;65076;52.362;6.588;2023-05-21T15:28:14;13.27;;;10.98;;